This is the latest recevied weather packets stored in our database for station/object OE6PLD-13. If no packets are shown the sender has not sent any weather packets the latest 10 day(s).
| Time | Temp. | Humidity | Pressure | Rain* | Wind** | Luminosity | Snow |
|---|---|---|---|---|---|---|---|
| 1777296455 | 21.67° C | 34% | 1012.3 hPa | 0.76 mm | - | 402 W/m² | - |
| 1777296271 | 21.11° C | 36% | 1012.5 hPa | 0.76 mm | - | 405 W/m² | - |
| 1777296088 | 21.67° C | 35% | 1012.5 hPa | 0.76 mm | - | 399 W/m² | - |
| 1777295905 | 21.67° C | 35% | 1012.3 hPa | 0.76 mm | - | 407 W/m² | - |
| 1777295721 | 21.67° C | 35% | 1012.4 hPa | 0.76 mm | - | 415 W/m² | - |
| 1777295538 | 21.67° C | 35% | 1012.6 hPa | 0.76 mm | - | 437 W/m² | - |
| 1777295354 | 21.67° C | 35% | 1012.5 hPa | 0.76 mm | - | 455 W/m² | - |
| 1777295171 | 21.11° C | 36% | 1012.8 hPa | 0.76 mm | - | 460 W/m² | - |
| 1777294988 | 21.67° C | 33% | 1012.7 hPa | 0.76 mm | - | 476 W/m² | - |
| 1777294804 | 21.67° C | 36% | 1012.7 hPa | 0.76 mm | - | 486 W/m² | - |
| 1777294621 | 22.22° C | 34% | 1012.7 hPa | 0.76 mm | - | 497 W/m² | - |
| 1777294438 | 21.11° C | 35% | 1012.7 hPa | 0.76 mm | - | 497 W/m² | - |
| 1777294254 | 20.56° C | 37% | 1012.8 hPa | 0.76 mm | - | 487 W/m² | - |
| 1777294071 | 20.56° C | 36% | 1012.6 hPa | 0.76 mm | - | 478 W/m² | - |
| 1777293888 | 20.56° C | 37% | 1012.7 hPa | 0.76 mm | - | 481 W/m² | - |
| 1777293704 | 20.56° C | 36% | 1012.8 hPa | 0.76 mm | - | 479 W/m² | - |
| 1777293521 | 20.56° C | 35% | 1012.8 hPa | 0.76 mm | - | 477 W/m² | - |
| 1777293338 | 21.11° C | 36% | 1012.8 hPa | 0.76 mm | - | 471 W/m² | - |
| 1777293154 | 21.11° C | 34% | 1012.9 hPa | 0.76 mm | - | 486 W/m² | - |
| 1777292971 | 20.56° C | 35% | 1013 hPa | 0.76 mm | - | 496 W/m² | - |
| 1777292787 | 20.56° C | 34% | 1012.7 hPa | 0.76 mm | - | 497 W/m² | - |
| 1777292604 | 21.11° C | 35% | 1012.7 hPa | 0.76 mm | - | 509 W/m² | - |
| 1777292421 | 21.11° C | 34% | 1013.1 hPa | 0.76 mm | - | 514 W/m² | - |
| 1777292237 | 20.56° C | 36% | 1013.1 hPa | 0.76 mm | - | 522 W/m² | - |
| 1777292054 | 20° C | 37% | 1013.1 hPa | 0.76 mm | - | 538 W/m² | - |
* Rain latest hour (hover to see other rain measurements)
** Current wind speed in m/s (hover to see current wind gust speed)